Curtis Field
KBBD : now visible

Airfield :











YOU CAN JOIN US ON...

 
LOGIN :

Register | Disclaimer

   EN    FR    IT 

 









Legend :    VFR   Marginal VFR   IFR   Intensive IFR   Very Intensive IFR
Visi :
Ceiling :
>= 8 km
>= 3000ft
5 to 8 km
1000 to 3000 ft
1500m to 5 km
500 to 1000 ft
800 to 1500m
200 to 500 ft
< 800m
< 200 ft
Symbols :   Thunderstorms  Fog  Heavy snow  Heavy precipitations  Wind > 20 kt






- Airport Elevation : 1827 ft


KBBD - Curtis Field

CURRENT METAR :
  • 172235Z AUTO 14009KT 10SM 20/M11 RMK AO2

EXPIRED METARs :
  • 172215Z AUTO 17009KT 10SM 20/M12 RMK AO2
  • 172155Z AUTO 15009KT 10SM 20/M12 RMK AO2
  • 172135Z AUTO 16009G14KT 10SM 20/M12 RMK AO2
  • 172115Z AUTO 21008KT 10SM 20/M13 RMK AO2
  • 172055Z AUTO 19011G17KT 10SM 20/M14 RMK AO2
  • 172035Z AUTO 19014KT 150V210 10SM 19/M15 RMK AO2
  • 172015Z AUTO 19008G16KT 10SM 19/M14 RMK AO2
  • 171955Z AUTO 19009G14KT 10SM 19/M14 RMK AO2

TAF KBBD
Valid from the 17 at 18:00 until the 18 at 18:00 UTC


171720Z 1718/1818 17008KT P6SM SKC
FM180000 16006KT P6SM FEW250
KZHU FIR / North America



MET'MAP, your aeronautical weather chart ! - Copyright ORBIFLY December 2007 - Disclaimer

ORBIFLY MET'MAP TEAM :

Programming & Development : Alexandra Zaïnal
Concept & original design : Baudouin d'Aumeries
Assistance for programming : Marc-Olivier Méhu
Technical & hardware support : Manuel Goepfert

Contact : metmap@orbifly.com




SOURCES & CREDITS :

   NOAA       Earth
Advisory